Time;durP1;ratioP1;P1;durP2;ratioP2;P2;SDS_P1;SDS_P2;PMS_P1;PMS_P2;Temp;Humidity;BMP_temperature;BMP_pressure;BME280_temperature;BME280_humidity;BME280_pressure;Samples;Min_cycle;Max_cycle;Signal;HPM_P1;HPM_P2
2022/01/16 00:00:55;;;;;;;99.53;38.10;;;2.70;99.90;;;;;;4951539;28;20558;-85
2022/01/16 00:06:05;;;;;;;109.18;39.88;;;2.70;99.90;;;;;;4968171;28;20054;-85
2022/01/16 00:08:31;;;;;;;103.07;36.13;;;2.70;99.90;;;;;;4968505;28;20043;-85
2022/01/16 00:10:56;;;;;;;112.60;39.63;;;2.70;99.90;;;;;;4969488;28;20046;-84
2022/01/16 00:13:23;;;;;;;118.55;38.80;;;3.40;99.90;;;;;;4970285;28;20046;-84
2022/01/16 00:15:49;;;;;;;117.80;38.83;;;3.20;99.90;;;;;;4970595;28;20047;-83
2022/01/16 00:18:27;;;;;;;118.50;38.95;;;2.60;99.90;;;;;;4954171;28;20042;-83
2022/01/16 00:20:53;;;;;;;126.90;39.65;;;2.70;99.90;;;;;;4970003;28;20096;-83
2022/01/16 00:23:27;;;;;;;105.25;33.60;;;2.90;99.90;;;;;;4971408;28;20545;-84
2022/01/16 00:25:53;;;;;;;;;;;2.60;99.90;;;;;;4954873;28;20069;-84
2022/01/16 00:28:19;;;;;;;114.15;36.58;;;2.50;99.90;;;;;;4969695;28;20019;-83
2022/01/16 00:30:45;;;;;;;116.13;37.97;;;3.80;99.90;;;;;;4969155;28;20097;-84
2022/01/16 00:33:10;;;;;;;114.57;36.20;;;2.40;99.90;;;;;;4969454;28;20042;-83
2022/01/16 00:35:37;;;;;;;101.13;35.25;;;2.80;99.90;;;;;;4937310;28;20059;-83
2022/01/16 00:38:04;;;;;;;102.93;36.80;;;2.50;99.90;;;;;;4971162;28;20519;-84
2022/01/16 00:40:29;;;;;;;98.95;34.70;;;2.30;99.90;;;;;;4970845;28;20047;-86
2022/01/16 00:42:57;;;;;;;99.05;35.15;;;2.40;99.90;;;;;;4972429;28;20061;-82
2022/01/16 00:45:23;;;;;;;111.28;38.03;;;2.50;99.90;;;;;;4972991;28;20414;-84
2022/01/16 00:47:49;;;;;;;107.30;36.72;;;2.40;99.90;;;;;;4989462;28;20058;-83
2022/01/16 00:50:14;;;;;;;123.07;38.30;;;2.40;99.90;;;;;;4990244;28;20133;-83
2022/01/16 00:52:40;;;;;;;118.55;39.42;;;2.40;99.90;;;;;;4989493;28;20046;-83
2022/01/16 00:55:06;;;;;;;120.47;36.47;;;2.40;99.90;;;;;;4990019;28;20050;-83
2022/01/16 00:57:32;;;;;;;102.82;36.88;;;2.30;99.90;;;;;;4956415;28;20046;-86
2022/01/16 00:59:58;;;;;;;114.22;37.30;;;2.30;99.90;;;;;;4989602;28;20154;-81
2022/01/16 01:02:23;;;;;;;120.90;39.75;;;2.30;99.90;;;;;;4990021;28;20484;-82
2022/01/16 01:04:50;;;;;;;108.65;37.25;;;2.30;99.90;;;;;;4989966;28;20068;-83
2022/01/16 01:07:16;;;;;;;120.15;39.22;;;2.30;99.90;;;;;;4956558;28;20495;-82
2022/01/16 01:09:42;;;;;;;114.93;38.45;;;2.30;99.90;;;;;;4972039;28;20093;-82
2022/01/16 01:12:09;;;;;;;115.07;39.25;;;2.30;99.90;;;;;;4940555;28;20085;-82
2022/01/16 01:14:52;;;;;;;121.18;39.78;;;2.20;99.90;;;;;;4956509;28;20050;-86
2022/01/16 01:17:23;;;;;;;110.47;38.88;;;3.20;99.90;;;;;;4972782;28;20491;-83
2022/01/16 01:19:49;;;;;;;111.18;39.50;;;3.40;99.90;;;;;;4972658;28;20126;-83
2022/01/16 01:22:15;;;;;;;108.10;36.85;;;2.10;99.90;;;;;;4956330;28;20046;-83
2022/01/16 01:24:40;;;;;;;112.05;40.78;;;2.10;99.90;;;;;;4989086;28;20129;-84
2022/01/16 01:27:17;;;;;;;103.93;39.42;;;2.80;99.90;;;;;;4972465;28;20058;-83
2022/01/16 01:29:49;;;;;;;109.80;38.47;;;2.00;99.90;;;;;;4988746;28;20054;-83
2022/01/16 01:32:15;;;;;;;104.05;38.00;;;2.10;99.90;;;;;;4972355;28;20106;-83
2022/01/16 01:34:41;;;;;;;92.82;35.63;;;2.10;99.90;;;;;;4971707;28;20133;-84
2022/01/16 01:37:06;;;;;;;87.90;34.97;;;1.90;99.90;;;;;;4971976;28;20395;-84
2022/01/16 01:39:32;;;;;;;90.32;32.60;;;1.90;99.90;;;;;;4989108;28;20550;-84
2022/01/16 01:42:06;;;;;;;83.20;32.28;;;2.70;99.90;;;;;;4988299;28;21073;-83
2022/01/16 01:52:45;;;;;;;117.03;38.78;;;1.90;99.90;;;;;;4988722;28;20051;-85
2022/01/16 01:55:11;;;;;;;107.18;36.90;;;1.80;99.90;;;;;;4989267;28;20061;-84
2022/01/16 01:57:36;;;;;;;110.53;38.47;;;1.80;99.90;;;;;;4939949;28;20053;-83
2022/01/16 02:00:04;;;;;;;111.55;36.45;;;2.60;99.90;;;;;;4955253;28;20046;-83
2022/01/16 02:02:37;;;;;;;119.72;38.90;;;1.90;99.90;;;;;;4971403;28;20050;-84
2022/01/16 02:05:02;;;;;;;113.85;38.05;;;3.30;99.90;;;;;;4988313;28;20082;-84
2022/01/16 02:07:28;;;;;;;129.35;41.42;;;1.90;99.90;;;;;;4971639;28;20090;-84
2022/01/16 02:09:54;;;;;;;119.60;38.97;;;1.90;99.90;;;;;;4988290;28;20042;-82
2022/01/16 02:12:19;;;;;;;128.68;41.47;;;1.90;99.90;;;;;;4955437;28;20158;-82
2022/01/16 02:15:00;;;;;;;139.63;42.55;;;2.10;99.90;;;;;;4955025;28;20051;-83
2022/01/16 02:28:43;;;;;;;;;;;1.90;99.90;;;;;;4971997;28;20051;-83
2022/01/16 02:31:23;;;;;;;149.95;45.92;;;3.30;99.90;;;;;;4971015;28;19921;-82
2022/01/16 02:36:28;;;;;;;148.77;44.47;;;2.00;99.90;;;;;;4988627;28;20058;-84
2022/01/16 02:39:01;;;;;;;144.77;45.88;;;2.00;99.90;;;;;;4956940;28;20112;-83
2022/01/16 02:41:27;;;;;;;150.63;45.23;;;2.10;99.90;;;;;;4971701;28;20089;-83
2022/01/16 02:43:55;;;;;;;158.00;46.58;;;2.00;99.90;;;;;;4987706;28;20101;-82
2022/01/16 02:48:49;;;;;;;172.98;48.13;;;2.10;99.90;;;;;;4970358;28;20090;-88
2022/01/16 02:51:16;;;;;;;170.52;49.72;;;2.00;99.90;;;;;;4955256;28;20057;-82
2022/01/16 02:53:43;;;;;;;167.65;49.35;;;2.10;99.90;;;;;;4988347;28;20054;-83
2022/01/16 02:56:08;;;;;;;167.32;47.75;;;2.00;99.90;;;;;;4970443;28;20096;-83
2022/01/16 02:58:34;;;;;;;177.63;50.00;;;2.10;99.90;;;;;;4971057;28;20078;-82
2022/01/16 03:01:00;;;;;;;173.07;49.38;;;2.10;99.90;;;;;;4970168;28;20050;-83
2022/01/16 03:03:26;;;;;;;182.82;49.03;;;2.60;99.90;;;;;;4988098;28;20167;-82
2022/01/16 03:05:51;;;;;;;181.88;48.67;;;2.50;99.90;;;;;;4987637;28;20103;-82
2022/01/16 03:08:17;;;;;;;162.68;48.13;;;2.10;99.90;;;;;;4988080;28;20053;-82
2022/01/16 03:11:12;;;;;;;187.80;51.05;;;2.10;99.90;;;;;;4988297;28;20050;-83
2022/01/16 03:13:48;;;;;;;204.55;52.60;;;2.60;99.90;;;;;;4988111;28;20077;-84
2022/01/16 03:16:18;;;;;;;200.93;51.75;;;2.10;99.90;;;;;;4991204;28;20058;-82
2022/01/16 03:24:12;;;;;;;203.60;51.95;;;2.70;99.90;;;;;;4959855;28;20054;-82
2022/01/16 03:26:37;;;;;;;202.73;51.13;;;2.50;99.90;;;;;;4974335;28;20050;-82
2022/01/16 03:29:03;;;;;;;226.43;54.28;;;2.90;99.90;;;;;;4973417;28;20065;-83
2022/01/16 03:31:29;;;;;;;210.25;54.85;;;3.00;99.90;;;;;;4942086;28;20506;-83
2022/01/16 03:33:55;;;;;;;253.35;56.78;;;2.20;99.90;;;;;;4990691;28;20061;-88
2022/01/16 03:36:21;;;;;;;227.68;51.88;;;2.20;99.90;;;;;;4991306;28;20125;-83
2022/01/16 03:38:46;;;;;;;242.95;54.47;;;2.30;99.90;;;;;;4973792;28;20050;-83
2022/01/16 03:41:12;;;;;;;233.98;54.45;;;2.70;99.90;;;;;;4973420;28;20047;-83
2022/01/16 03:43:37;;;;;;;230.18;54.95;;;2.20;99.90;;;;;;4990896;28;20403;-82
2022/01/16 03:46:03;;;;;;;241.63;54.95;;;3.60;99.90;;;;;;4990450;28;20062;-83
2022/01/16 03:48:29;;;;;;;253.38;53.75;;;2.40;99.90;;;;;;4991172;28;20054;-83
2022/01/16 03:50:55;;;;;;;233.02;54.92;;;2.20;99.90;;;;;;4973615;28;20504;-86
2022/01/16 03:53:20;;;;;;;220.73;50.63;;;2.20;99.90;;;;;;4957064;28;20046;-83
2022/01/16 03:55:47;;;;;;;225.93;52.78;;;2.20;99.90;;;;;;4973556;28;20050;-84
2022/01/16 03:58:12;;;;;;;216.27;53.17;;;2.50;99.90;;;;;;4973056;28;20050;-83
2022/01/16 04:00:38;;;;;;;240.77;52.85;;;3.10;99.90;;;;;;4941749;28;20049;-82
2022/01/16 04:03:04;;;;;;;222.00;52.28;;;2.30;99.90;;;;;;4990392;28;20046;-83
2022/01/16 04:05:29;;;;;;;250.10;57.53;;;2.30;99.90;;;;;;4973688;28;20445;-84
2022/01/16 04:07:55;;;;;;;251.20;54.35;;;3.10;99.90;;;;;;4990643;28;20042;-84
2022/01/16 04:10:22;;;;;;;247.38;54.65;;;2.40;99.90;;;;;;4990270;28;20526;-83
2022/01/16 04:12:47;;;;;;;257.83;55.38;;;2.30;99.90;;;;;;4973252;28;20507;-83
2022/01/16 04:17:39;;;;;;;235.55;54.05;;;2.40;99.90;;;;;;4972998;28;20061;-83
2022/01/16 04:20:05;;;;;;;251.10;52.53;;;2.60;99.90;;;;;;4956876;28;20065;-84
2022/01/16 04:22:31;;;;;;;265.70;54.15;;;2.50;99.90;;;;;;4941395;28;20054;-84
2022/01/16 04:24:57;;;;;;;250.32;54.00;;;3.20;99.90;;;;;;4972823;28;20498;-84
2022/01/16 04:27:22;;;;;;;238.27;52.25;;;2.60;99.90;;;;;;4972858;28;20054;-84
2022/01/16 04:29:48;;;;;;;249.23;52.50;;;2.50;99.90;;;;;;4973353;28;20050;-83
2022/01/16 04:32:14;;;;;;;247.23;55.75;;;2.90;99.90;;;;;;4972878;28;20078;-83
2022/01/16 04:34:39;;;;;;;245.10;52.05;;;2.50;99.90;;;;;;4957273;28;20136;-83
2022/01/16 04:37:05;;;;;;;238.05;51.55;;;3.00;99.90;;;;;;4956497;28;20065;-84
2022/01/16 04:39:33;;;;;;;238.57;51.85;;;3.20;99.90;;;;;;4925482;28;20054;-84
2022/01/16 04:44:44;;;;;;;255.85;52.10;;;2.60;99.90;;;;;;4973208;28;20253;-83
2022/01/16 04:47:09;;;;;;;226.63;53.08;;;2.70;99.90;;;;;;4972388;28;20135;-83
2022/01/16 04:49:35;;;;;;;257.50;53.83;;;2.60;99.90;;;;;;4972633;28;20112;-83
2022/01/16 04:52:01;;;;;;;176.65;39.33;;;3.10;99.90;;;;;;4972672;28;20057;-83
2022/01/16 04:54:26;;;;;;;263.55;53.35;;;2.70;99.90;;;;;;4972416;28;20551;-85
2022/01/16 04:56:52;;;;;;;228.00;48.78;;;2.70;99.90;;;;;;4972961;28;20046;-83
2022/01/16 04:59:18;;;;;;;249.95;56.03;;;2.70;99.90;;;;;;4956391;28;20061;-83
2022/01/16 05:01:44;;;;;;;227.32;52.53;;;2.70;99.90;;;;;;4956942;28;20399;-83
2022/01/16 05:04:10;;;;;;;243.27;54.05;;;2.90;99.90;;;;;;4972000;28;20046;-84
2022/01/16 05:06:36;;;;;;;224.65;50.22;;;2.80;99.90;;;;;;4990036;28;20083;-83
2022/01/16 05:09:01;;;;;;;242.35;52.42;;;2.80;99.90;;;;;;4990107;28;20053;-83
2022/01/16 05:11:27;;;;;;;257.40;55.40;;;2.90;99.90;;;;;;4972109;28;20133;-83
2022/01/16 05:16:36;;;;;;;241.57;53.58;;;2.90;99.90;;;;;;4939912;28;20053;-83
2022/01/16 05:19:13;;;;;;;263.15;56.28;;;2.90;99.90;;;;;;4942834;28;20053;-83
2022/01/16 05:21:40;;;;;;;271.80;56.28;;;2.90;99.90;;;;;;4925371;28;20058;-83
2022/01/16 05:24:09;;;;;;;245.70;55.00;;;2.90;99.90;;;;;;4956521;28;20055;-83
2022/01/16 05:26:36;;;;;;;254.98;55.58;;;2.80;99.90;;;;;;4941504;28;20047;-83
2022/01/16 05:29:03;;;;;;;256.38;54.17;;;2.90;99.90;;;;;;4956646;28;20062;-84
2022/01/16 05:31:28;;;;;;;248.02;51.72;;;3.00;99.90;;;;;;4988668;28;20064;-83
2022/01/16 05:33:54;;;;;;;250.63;53.40;;;2.90;99.90;;;;;;4989659;28;20458;-82
2022/01/16 05:36:20;;;;;;;263.77;56.42;;;3.00;99.90;;;;;;4971669;28;20481;-82
2022/01/16 05:38:46;;;;;;;247.05;56.67;;;3.00;99.90;;;;;;4989126;28;20411;-83
2022/01/16 05:41:11;;;;;;;272.02;58.60;;;3.00;99.90;;;;;;4988790;28;20049;-83
2022/01/16 05:43:37;;;;;;;260.38;56.35;;;3.30;99.90;;;;;;4971790;28;20062;-82
2022/01/16 05:46:03;;;;;;;242.95;57.22;;;3.50;99.90;;;;;;4989092;28;20111;-83
2022/01/16 05:48:28;;;;;;;261.40;59.90;;;3.00;99.90;;;;;;4988828;28;20050;-83
2022/01/16 05:50:55;;;;;;;273.50;58.17;;;3.30;99.90;;;;;;4956161;28;20042;-83
2022/01/16 05:53:20;;;;;;;258.77;58.60;;;4.50;99.90;;;;;;4971520;28;20074;-83
2022/01/16 05:55:46;;;;;;;255.73;57.25;;;3.10;99.90;;;;;;4989303;28;20089;-82
2022/01/16 05:58:13;;;;;;;262.13;57.55;;;3.30;99.90;;;;;;4988821;28;20053;-88
2022/01/16 06:00:39;;;;;;;245.05;59.60;;;3.10;99.90;;;;;;4971812;28;20097;-82
2022/01/16 06:03:05;;;;;;;264.85;59.03;;;3.20;99.90;;;;;;4972011;28;20086;-82
2022/01/16 06:05:30;;;;;;;269.75;59.90;;;3.30;99.90;;;;;;4988617;28;20046;-83
2022/01/16 06:07:59;;;;;;;267.27;58.47;;;3.10;99.90;;;;;;4988919;28;20042;-82
2022/01/16 06:10:25;;;;;;;240.63;56.92;;;3.40;99.90;;;;;;4955508;28;20598;-83
2022/01/16 06:12:54;;;;;;;230.15;54.28;;;3.20;99.90;;;;;;4955628;28;20129;-82
2022/01/16 06:15:20;;;;;;;254.38;55.58;;;3.20;99.90;;;;;;4939639;28;20446;-82
2022/01/16 06:17:46;;;;;;;252.38;56.53;;;3.30;99.90;;;;;;4971778;28;20056;-83
2022/01/16 06:20:14;;;;;;;216.30;55.35;;;3.30;99.90;;;;;;4971533;28;20480;-83
2022/01/16 06:22:40;;;;;;;185.13;50.40;;;3.40;99.90;;;;;;4971596;28;20069;-83
2022/01/16 06:25:05;;;;;;;217.57;55.28;;;3.40;99.90;;;;;;4988427;28;20496;-83
2022/01/16 06:27:31;;;;;;;224.30;54.83;;;3.40;99.90;;;;;;4970931;28;20096;-83
2022/01/16 06:29:57;;;;;;;223.07;54.65;;;3.80;99.90;;;;;;4971394;28;20541;-83
2022/01/16 06:32:22;;;;;;;234.10;55.70;;;3.50;99.90;;;;;;4971125;28;20046;-84
2022/01/16 06:34:48;;;;;;;240.35;57.10;;;3.60;99.90;;;;;;4988798;28;20042;-83
2022/01/16 06:37:14;;;;;;;204.02;49.75;;;3.60;99.90;;;;;;4988664;28;20467;-83
2022/01/16 06:39:39;;;;;;;211.23;52.50;;;4.00;99.90;;;;;;4970873;28;20507;-84
2022/01/16 06:42:05;;;;;;;223.95;56.45;;;3.60;99.90;;;;;;4988460;28;20039;-84
2022/01/16 06:44:31;;;;;;;197.27;48.15;;;3.60;99.90;;;;;;4987968;28;20059;-84
2022/01/16 06:46:56;;;;;;;159.63;41.60;;;3.60;99.90;;;;;;4971234;28;20560;-83
2022/01/16 06:49:22;;;;;;;142.02;38.72;;;3.80;99.90;;;;;;4973041;28;20065;-84
2022/01/16 06:51:48;;;;;;;216.60;54.38;;;4.40;99.90;;;;;;4974586;28;20054;-83
2022/01/16 06:54:14;;;;;;;233.63;57.05;;;3.80;99.90;;;;;;4974358;28;20191;-84
2022/01/16 06:56:39;;;;;;;226.77;55.90;;;4.20;99.90;;;;;;4991377;28;20046;-83
2022/01/16 06:59:05;;;;;;;203.85;53.55;;;3.70;99.90;;;;;;4958186;28;20050;-85
2022/01/16 07:01:31;;;;;;;225.50;56.45;;;3.60;99.90;;;;;;4958017;28;20047;-83
2022/01/16 07:03:57;;;;;;;230.38;58.15;;;3.60;99.90;;;;;;4991475;28;20057;-83
2022/01/16 07:06:22;;;;;;;229.77;55.78;;;4.60;99.90;;;;;;4974144;28;20057;-88
2022/01/16 07:08:48;;;;;;;238.82;59.50;;;3.60;99.90;;;;;;4974310;28;20046;-83
2022/01/16 07:11:15;;;;;;;207.50;55.83;;;3.60;99.90;;;;;;4958076;28;20056;-82
2022/01/16 07:13:40;;;;;;;225.43;55.38;;;3.80;99.90;;;;;;4990838;28;20072;-84
2022/01/16 07:16:06;;;;;;;250.25;57.63;;;3.60;99.90;;;;;;4974484;28;20046;-83
2022/01/16 07:18:31;;;;;;;231.70;58.03;;;3.70;99.90;;;;;;4990518;28;20089;-84
2022/01/16 07:20:57;;;;;;;239.68;61.10;;;3.70;99.90;;;;;;4991465;28;20052;-83
2022/01/16 07:23:23;;;;;;;250.18;59.67;;;3.70;99.90;;;;;;4991256;28;20043;-87
2022/01/16 07:25:49;;;;;;;251.20;61.47;;;3.80;99.90;;;;;;4991264;28;20089;-83
2022/01/16 07:28:14;;;;;;;244.85;61.40;;;3.80;99.90;;;;;;4991300;28;20046;-83
2022/01/16 07:30:40;;;;;;;223.65;55.78;;;3.80;99.90;;;;;;4973669;28;20050;-83
2022/01/16 07:33:06;;;;;;;228.10;56.28;;;4.90;99.90;;;;;;4958281;28;20077;-83
2022/01/16 07:35:32;;;;;;;227.32;57.97;;;3.80;99.90;;;;;;4991021;28;20093;-83
2022/01/16 07:37:58;;;;;;;233.60;58.78;;;3.80;99.90;;;;;;4974411;28;20058;-84
2022/01/16 07:40:24;;;;;;;237.90;60.63;;;3.90;99.90;;;;;;4973734;28;20046;-86
2022/01/16 07:42:50;;;;;;;235.63;57.92;;;4.10;99.90;;;;;;4941913;28;20111;-83
2022/01/16 07:45:16;;;;;;;216.40;58.63;;;4.00;99.90;;;;;;4973622;28;20496;-84
2022/01/16 07:47:42;;;;;;;242.45;61.28;;;3.90;99.90;;;;;;4957334;28;20054;-83
2022/01/16 07:50:08;;;;;;;212.70;50.50;;;4.10;99.90;;;;;;4991328;28;20046;-84
2022/01/16 07:52:34;;;;;;;259.85;60.65;;;4.00;99.90;;;;;;4957677;28;20518;-83
2022/01/16 07:54:59;;;;;;;227.45;60.38;;;4.00;99.90;;;;;;4991336;28;20054;-83
2022/01/16 07:57:25;;;;;;;230.85;61.33;;;4.00;99.90;;;;;;4973469;28;20107;-83
2022/01/16 07:59:51;;;;;;;217.20;57.72;;;4.00;99.90;;;;;;4972713;28;20058;-83
2022/01/16 08:02:17;;;;;;;230.95;59.85;;;4.20;99.90;;;;;;4973744;28;20059;-84
2022/01/16 08:04:43;;;;;;;232.45;60.45;;;4.10;99.90;;;;;;4956990;28;20055;-83
2022/01/16 08:07:10;;;;;;;234.38;60.42;;;4.10;99.90;;;;;;4973472;28;20057;-83
2022/01/16 08:09:37;;;;;;;219.52;58.25;;;4.10;99.90;;;;;;4990128;28;20125;-83
2022/01/16 08:12:04;;;;;;;230.48;59.55;;;4.80;99.90;;;;;;4973502;28;20054;-83
2022/01/16 08:14:29;;;;;;;218.35;59.05;;;4.10;99.90;;;;;;4990634;28;20143;-88
2022/01/16 08:16:56;;;;;;;208.98;57.83;;;4.20;99.90;;;;;;4973351;28;20078;-83
2022/01/16 08:19:22;;;;;;;212.38;59.25;;;4.60;99.90;;;;;;4973261;28;20065;-84
2022/01/16 08:21:48;;;;;;;208.43;59.10;;;4.30;99.90;;;;;;4989766;28;20054;-84
2022/01/16 08:24:14;;;;;;;190.73;57.85;;;5.10;99.90;;;;;;4972923;28;20052;-84
2022/01/16 08:26:40;;;;;;;186.88;56.60;;;4.40;99.90;;;;;;4972465;28;20054;-84
2022/01/16 08:29:05;;;;;;;197.30;60.75;;;4.50;99.90;;;;;;4990434;28;20064;-84
2022/01/16 08:31:31;;;;;;;191.63;57.45;;;4.90;99.90;;;;;;4990192;28;20569;-89
2022/01/16 08:33:57;;;;;;;185.23;57.28;;;4.60;99.90;;;;;;4940799;28;20055;-83
2022/01/16 08:36:23;;;;;;;180.35;60.45;;;4.60;99.90;;;;;;4972966;28;20050;-85
2022/01/16 08:38:48;;;;;;;186.57;56.85;;;4.70;99.90;;;;;;4989523;28;20054;-84
2022/01/16 08:41:14;;;;;;;176.00;56.97;;;5.50;99.90;;;;;;4972725;28;20093;-83
2022/01/16 08:43:39;;;;;;;175.85;58.33;;;4.80;99.90;;;;;;4971929;28;20141;-85
2022/01/16 08:46:05;;;;;;;176.18;57.75;;;4.80;99.90;;;;;;4990268;28;20093;-84
2022/01/16 08:48:31;;;;;;;169.68;56.60;;;4.90;99.90;;;;;;4972992;28;20050;-84
2022/01/16 08:50:56;;;;;;;164.80;53.90;;;5.10;99.90;;;;;;4989456;28;20081;-83
2022/01/16 08:53:22;;;;;;;174.88;58.55;;;5.50;99.90;;;;;;4990033;28;20038;-83
2022/01/16 08:55:48;;;;;;;171.52;55.83;;;5.00;99.90;;;;;;4989243;28;20502;-84
2022/01/16 08:58:13;;;;;;;157.70;54.70;;;5.00;99.90;;;;;;4989672;28;20050;-84
2022/01/16 09:00:43;;;;;;;160.80;55.47;;;5.10;99.90;;;;;;4972301;28;20057;-84
2022/01/16 09:03:09;;;;;;;160.15;54.00;;;5.00;99.90;;;;;;4972611;28;20058;-84
2022/01/16 09:05:35;;;;;;;170.02;55.65;;;5.10;99.90;;;;;;4972647;28;20148;-83
2022/01/16 09:08:00;;;;;;;167.43;57.50;;;5.10;99.90;;;;;;4955706;28;20043;-86
2022/01/16 09:10:26;;;;;;;151.75;55.50;;;5.10;99.90;;;;;;4990709;28;20086;-86
2022/01/16 09:12:53;;;;;;;147.57;54.05;;;5.10;99.90;;;;;;4988476;28;20046;-85
2022/01/16 09:15:19;;;;;;;142.25;52.25;;;5.20;99.90;;;;;;4991466;28;20090;-86
2022/01/16 09:17:44;;;;;;;147.57;53.15;;;5.30;99.90;;;;;;4937980;28;20059;-87
2022/01/16 09:20:13;;;;;;;135.00;52.95;;;5.30;99.90;;;;;;4953076;28;20051;-84
2022/01/16 09:22:40;;;;;;;140.18;51.13;;;5.30;99.90;;;;;;4952587;28;20059;-86
2022/01/16 09:25:06;;;;;;;130.02;50.38;;;5.30;99.90;;;;;;4922156;28;20082;-85
2022/01/16 09:27:33;;;;;;;128.65;50.17;;;5.40;99.90;;;;;;4937459;28;20074;-86
2022/01/16 09:29:58;;;;;;;132.65;50.90;;;5.40;99.90;;;;;;4952846;28;20395;-85
2022/01/16 09:32:25;;;;;;;120.95;50.15;;;5.40;99.90;;;;;;4953419;28;20484;-87
2022/01/16 09:34:51;;;;;;;119.32;47.65;;;5.50;99.90;;;;;;4952803;28;20090;-87
2022/01/16 09:37:16;;;;;;;129.18;50.20;;;5.60;99.90;;;;;;4970533;28;20101;-86
2022/01/16 09:39:42;;;;;;;123.15;49.60;;;5.60;99.90;;;;;;4960182;28;20042;-86
2022/01/16 09:42:08;;;;;;;126.72;50.17;;;5.60;99.90;;;;;;4972685;28;20107;-85
2022/01/16 09:44:38;;;;;;;109.55;46.40;;;5.60;99.90;;;;;;4939717;28;20145;-87
2022/01/16 09:47:04;;;;;;;113.70;47.85;;;5.80;99.90;;;;;;4955325;28;20962;-81
2022/01/16 09:49:29;;;;;;;114.82;48.17;;;5.80;99.90;;;;;;4955511;28;20046;-84
2022/01/16 09:51:55;;;;;;;113.13;47.67;;;6.10;99.90;;;;;;4971218;28;20083;-87
2022/01/16 09:54:21;;;;;;;108.20;47.78;;;5.80;99.90;;;;;;4971870;28;20038;-87
2022/01/16 09:56:49;;;;;;;99.40;45.55;;;5.90;99.90;;;;;;4953608;28;20056;-86
2022/01/16 09:59:15;;;;;;;100.88;45.30;;;6.70;99.90;;;;;;4971781;28;20058;-86
2022/01/16 10:01:41;;;;;;;99.05;44.13;;;5.90;99.90;;;;;;4989247;28;20104;-86
2022/01/16 10:04:30;;;;;;;99.88;46.28;;;6.20;99.90;;;;;;4988513;28;20115;-85
2022/01/16 10:06:57;;;;;;;100.88;45.00;;;5.90;99.90;;;;;;4971207;28;20051;-87
2022/01/16 10:09:23;;;;;;;104.10;46.65;;;5.90;99.90;;;;;;4924337;28;20066;-86
2022/01/16 10:11:59;;;;;;;98.80;45.38;;;5.90;99.90;;;;;;4988612;28;20059;-84
2022/01/16 10:14:29;;;;;;;87.97;43.55;;;5.90;99.90;;;;;;4955669;28;20050;-85
2022/01/16 10:16:54;;;;;;;98.43;43.78;;;6.00;99.90;;;;;;4969541;28;20050;-84
2022/01/16 10:19:25;;;;;;;96.70;44.42;;;6.00;99.90;;;;;;4970339;28;20689;-85
2022/01/16 10:21:51;;;;;;;93.18;44.65;;;6.00;99.90;;;;;;4952246;28;20531;-85
2022/01/16 10:24:21;;;;;;;90.95;42.75;;;6.30;99.90;;;;;;4955148;28;20054;-86
2022/01/16 10:26:49;;;;;;;90.28;43.67;;;6.20;99.90;;;;;;4954881;28;20046;-87
2022/01/16 10:29:16;;;;;;;81.50;38.38;;;6.10;99.90;;;;;;4971038;28;20042;-86
2022/01/16 10:31:42;;;;;;;84.45;41.95;;;6.30;99.90;;;;;;4967675;28;20081;-85
2022/01/16 10:34:26;;;;;;;84.05;41.30;;;6.20;99.90;;;;;;4952020;28;20506;-85
2022/01/16 10:36:51;;;;;;;77.97;37.45;;;6.20;99.90;;;;;;4935519;28;20063;-87
2022/01/16 10:39:17;;;;;;;78.75;40.50;;;6.30;99.90;;;;;;4968817;28;20057;-86
2022/01/16 10:41:43;;;;;;;84.82;40.03;;;6.30;99.90;;;;;;4951307;28;20047;-87
2022/01/16 10:44:29;;;;;;;74.18;37.88;;;6.30;99.90;;;;;;4968310;28;20112;-84
2022/01/16 10:46:55;;;;;;;77.07;36.25;;;6.30;99.90;;;;;;4951413;28;20090;-84
2022/01/16 10:49:21;;;;;;;71.80;35.83;;;6.40;99.90;;;;;;4952032;28;20082;-84
2022/01/16 10:52:04;;;;;;;67.53;36.58;;;6.40;99.90;;;;;;4951852;28;20055;-86
2022/01/16 10:54:35;;;;;;;65.93;36.00;;;6.40;99.90;;;;;;4952040;28;20511;-85
2022/01/16 10:57:23;;;;;;;76.05;36.72;;;6.40;99.90;;;;;;4935980;28;20439;-85
2022/01/16 10:59:49;;;;;;;67.32;34.85;;;6.40;99.90;;;;;;4969027;28;20062;-85
2022/01/16 11:02:14;;;;;;;71.43;35.53;;;6.50;99.90;;;;;;4935717;28;20051;-85
2022/01/16 11:04:40;;;;;;;63.33;32.53;;;6.50;99.90;;;;;;4968979;28;20062;-85
2022/01/16 11:07:06;;;;;;;63.42;35.03;;;6.60;99.90;;;;;;4935274;28;20128;-85
2022/01/16 11:09:32;;;;;;;67.55;33.60;;;6.50;99.90;;;;;;4951533;28;20126;-84
2022/01/16 11:11:59;;;;;;;62.85;32.88;;;6.50;99.90;;;;;;4951150;28;20047;-83
2022/01/16 11:14:29;;;;;;;61.03;32.10;;;6.50;99.90;;;;;;4968713;28;20112;-84
2022/01/16 11:16:55;;;;;;;59.03;28.98;;;6.50;99.90;;;;;;4951179;28;20094;-88
2022/01/16 11:19:23;;;;;;;61.42;30.08;;;6.60;99.90;;;;;;4951782;28;20491;-84
2022/01/16 11:21:53;;;;;;;52.63;29.08;;;6.60;99.90;;;;;;4936211;28;20056;-85
2022/01/16 11:26:51;;;;;;;39.83;22.42;;;6.80;99.90;;;;;;4921888;28;20104;-85
2022/01/16 11:29:17;;;;;;;53.35;29.00;;;6.60;99.90;;;;;;4951233;28;20435;-84
2022/01/16 11:31:43;;;;;;;51.88;25.65;;;6.60;99.90;;;;;;4935474;28;20579;-85
2022/01/16 11:34:10;;;;;;;52.92;27.77;;;6.70;99.90;;;;;;4951146;28;20419;-84
2022/01/16 11:36:35;;;;;;;48.17;25.73;;;6.70;99.90;;;;;;4971106;28;20046;-83
2022/01/16 11:39:05;;;;;;;47.75;25.70;;;6.60;99.90;;;;;;4954567;28;20057;-83
2022/01/16 11:41:34;;;;;;;49.13;25.48;;;6.70;99.90;;;;;;4938932;28;20454;-84
2022/01/16 11:44:20;;;;;;;41.55;24.48;;;6.60;99.90;;;;;;4954076;28;20066;-83
2022/01/16 11:46:49;;;;;;;42.38;23.30;;;6.60;99.90;;;;;;4972061;28;20055;-85
2022/01/16 11:49:19;;;;;;;46.03;23.70;;;6.60;99.90;;;;;;4938236;28;20077;-84
2022/01/16 11:51:51;;;;;;;42.45;23.58;;;6.60;99.90;;;;;;4971654;28;20053;-82
2022/01/16 11:54:36;;;;;;;40.83;21.80;;;6.60;99.90;;;;;;4954230;28;20058;-84
2022/01/16 11:57:03;;;;;;;38.13;20.58;;;6.70;99.90;;;;;;4953754;28;20053;-84
2022/01/16 11:59:38;;;;;;;40.25;21.13;;;6.60;99.90;;;;;;4953769;28;20058;-84
2022/01/16 12:02:07;;;;;;;40.22;20.02;;;6.70;99.90;;;;;;4953614;28;20047;-84
2022/01/16 12:04:33;;;;;;;40.50;19.55;;;6.70;99.90;;;;;;4954040;28;20053;-84
2022/01/16 12:07:04;;;;;;;40.72;19.20;;;6.70;99.90;;;;;;4954119;28;20137;-84
2022/01/16 12:12:13;;;;;;;31.92;15.77;;;6.70;99.90;;;;;;4953541;28;20484;-84
2022/01/16 12:15:14;;;;;;;29.95;15.13;;;6.80;99.90;;;;;;4954213;28;20157;-85
2022/01/16 12:17:51;;;;;;;34.70;12.98;;;6.80;99.90;;;;;;4946746;28;20090;-85
2022/01/16 12:20:20;;;;;;;28.80;15.40;;;7.00;99.90;;;;;;4953601;28;20400;-84
2022/01/16 12:22:58;;;;;;;26.73;14.07;;;6.90;99.90;;;;;;4971193;28;20396;-84
2022/01/16 12:25:40;;;;;;;22.35;13.00;;;6.90;99.90;;;;;;4953515;28;20469;-84
2022/01/16 12:28:09;;;;;;;26.20;12.95;;;6.80;99.90;;;;;;4953942;28;20094;-84
2022/01/16 12:30:55;;;;;;;25.33;11.50;;;6.90;99.90;;;;;;4953652;28;20046;-84
2022/01/16 12:33:37;;;;;;;24.08;12.93;;;7.00;99.90;;;;;;4922771;28;20076;-86
2022/01/16 12:36:11;;;;;;;24.90;12.05;;;6.90;99.90;;;;;;4921931;28;20108;-86
2022/01/16 12:39:10;;;;;;;26.90;12.65;;;6.90;99.90;;;;;;4938999;28;20473;-84
2022/01/16 12:41:45;;;;;;;28.02;12.00;;;6.90;99.90;;;;;;4954124;28;20043;-85
2022/01/16 12:44:15;;;;;;;21.27;11.20;;;6.90;99.90;;;;;;4946472;28;20059;-86
2022/01/16 12:46:43;;;;;;;28.58;11.00;;;6.90;99.90;;;;;;5016612;28;20488;-83
2022/01/16 12:49:29;;;;;;;23.17;11.30;;;6.90;99.90;;;;;;5017226;28;20134;-88
2022/01/16 12:51:56;;;;;;;21.58;10.52;;;6.90;99.90;;;;;;4998759;28;20480;-84
2022/01/16 12:54:26;;;;;;;17.98;10.40;;;6.90;99.90;;;;;;5016869;28;20063;-85
2022/01/16 12:57:02;;;;;;;20.80;9.45;;;7.00;99.90;;;;;;4949849;28;20150;-85
2022/01/16 12:59:30;;;;;;;21.23;10.27;;;7.00;99.90;;;;;;5000280;28;20505;-84
2022/01/16 13:01:59;;;;;;;20.88;9.73;;;7.40;99.90;;;;;;4950725;28;20051;-84
2022/01/16 13:04:35;;;;;;;16.63;9.35;;;7.10;99.90;;;;;;4949371;28;20201;-83
2022/01/16 13:07:03;;;;;;;20.45;10.50;;;7.10;99.90;;;;;;4949951;28;20051;-84
2022/01/16 13:09:29;;;;;;;19.48;9.10;;;7.00;99.90;;;;;;4950190;28;20200;-84
2022/01/16 13:11:58;;;;;;;13.85;9.13;;;7.10;99.90;;;;;;5017047;28;20449;-85
2022/01/16 13:14:25;;;;;;;15.98;8.73;;;7.10;99.90;;;;;;5015159;28;20516;-85
2022/01/16 13:16:53;;;;;;;19.77;9.10;;;7.10;99.90;;;;;;4934401;29;20050;-85
2022/01/16 13:19:21;;;;;;;20.67;8.57;;;7.10;99.90;;;;;;4949628;28;20427;-85